Weather observations for the past three days for
Gilmer County Airport
Metric (Imperial)
Date Time (edt) Wind (kph) Vis. (km) Weather Sky Cond. Temperature (ºC) Relative Humidity Wind Chill (°C) Heat Index (°C) Pressure Precipitation (cm)
Air Dwpt 6 hour altimeter (cm) sea level (mb) 1 hr 3 hr 6 hr
Max. Min.
03 21:35 N 6 16.09 Fair CLR 25 24 94% 26 76.38 0.0
03 21:15 Calm 16.09 A Few Clouds FEW003 26 23 84% 28 76.35 0.0
03 20:55 NE 7 16.09 Fair CLR 26 23 84% 28 76.35 0.0
03 20:35 Calm 16.09 Fair CLR 27 23 79% 30 76.33 0.0
03 20:15 Calm 16.09 Fair CLR 27 23 79% 30 76.3 0.0
03 19:55 Calm 16.09 Fair CLR 28 23 74% 31 76.28 0.0
03 19:35 Calm 16.09 Fair CLR 31 21 55% 34 76.28 0.0
03 19:15 Calm 16.09 Fair CLR 32 21 52% 35 76.28 0.0
03 18:55 E 9 16.09 Fair CLR 33 21 49% 36 76.28 0.0
03 18:35 Calm 16.09 Fair CLR 34 22 50% 38 76.28 0.0
03 18:15 E 6 16.09 Fair CLR 34 21 47% 37 76.28 0.0
03 17:55 E 7 16.09 Fair CLR 34 21 47% 37 76.28 0.0
03 17:35 E 9 16.09 Fair CLR 35 21 44% 38 76.25 0.0
03 17:15 NE 11 16.09 Fair CLR 35 20 41% 38 76.28 0.0
03 16:55 Vrbl 6 16.09 Fair CLR 35 21 44% 38 76.28 0.0
03 16:35 Calm 16.09 Fair CLR 35 20 41% 38 76.3 0.0
03 16:15 NE 9 16.09 Fair CLR 35 20 41% 38 76.33 0.0
03 15:55 NE 11 16.09 Fair CLR 36 20 39% 39 76.33 0.0
03 15:35 E 9 16.09 Fair CLR 35 21 44% 38 76.35 0.0
03 15:15 E 11 16.09 Fair CLR 35 22 47% 39 76.38 0.0
03 14:55 E 13 16.09 A Few Clouds FEW110 35 20 41% 38 76.4 0.0
03 14:35 Calm 16.09 A Few Clouds FEW055 FEW085 35 21 44% 38 76.4 0.0
03 14:15 N 11 16.09 Partly Cloudy SCT060 SCT080 36 22 44% 41 76.4 0.0
03 13:55 NE 9 16.09 Partly Cloudy SCT060 35 21 44% 38 76.43 0.0
03 13:35 Calm 16.09 A Few Clouds FEW060 35 20 41% 38 76.43 0.0
03 13:15 Calm 16.09 Fair CLR 34 20 44% 36 76.45 0.0
03 12:55 Calm 16.09 Fair CLR 34 20 44% 36 76.48 0.0
03 12:35 Vrbl 7 16.09 Fair CLR 33 20 46% 35 76.5 0.0
03 12:15 Calm 16.09 Fair CLR 34 22 50% 38 76.5 0.0
03 11:55 Calm 16.09 Fair CLR 33 21 49% 36 76.5 0.0
03 11:35 Calm 16.09 Fair CLR 32 21 52% 35 76.53 0.0
03 11:15 E 7 16.09 Fair CLR 32 21 52% 35 76.5 0.0
03 10:55 NE 7 16.09 Fair CLR 31 22 59% 35 76.5 0.0
03 10:35 NE 6 16.09 Fair CLR 30 22 62% 33 76.5 0.0
03 10:15 NE 6 16.09 Fair CLR 29 23 70% 33 76.5 0.0
03 09:55 NE 7 16.09 Fair CLR 28 22 70% 31 76.5 0.0
03 09:35 NE 9 16.09 Fair CLR 27 23 79% 30 76.53 0.0
03 09:15 Calm 16.09 Fair CLR 26 23 84% 28 76.53 0.0
03 08:55 Calm 16.09 Fair CLR 25 23 89% 26 76.53 0.0
03 08:35 N 6 16.09 Fair CLR 24 23 94% 23 76.53 0.0
03 08:15 Calm 16.09 Fair CLR 23 23 100% 76.53 0.0
03 07:55 Calm 16.09 Fair CLR 22 22 100% 76.5 0.0
03 07:35 Vrbl 6 14.48 Fair CLR 22 22 100% 76.5 0.0
03 07:15 NE 7 16.09 Fair CLR 22 22 100% 76.48 0.0
03 06:55 NE 7 14.48 Fair CLR 22 22 100% 76.48 0.0
03 06:35 NE 7 14.48 Fair CLR 22 22 100% 76.45 0.0
03 06:15 Calm 11.27 Fair CLR 22 22 100% 76.45 0.0
03 05:55 Calm 9.66 Fog/Mist CLR 21 21 100% 76.43 0.0
03 05:35 N 7 11.27 Fair CLR 22 22 100% 76.43 0.0
03 05:15 Calm 8.05 Fog/Mist CLR 22 22 100% 76.43 0.0
03 04:55 Calm 16.09 Fair CLR 22 22 100% 76.45 0.0
03 04:35 Calm 14.48 Fair CLR 22 22 100% 76.45 0.0
03 04:15 Calm 14.48 Fair CLR 22 22 100% 76.45 0.0
03 03:55 Vrbl 7 16.09 Fair CLR 22 22 100% 76.43 0.0
03 03:35 N 7 14.48 Fair CLR 22 22 100% 76.43 0.0
03 03:15 Calm 16.09 Fair CLR 22 22 100% 76.43 0.0
03 02:55 Calm 8.05 Fog/Mist CLR 22 22 100% 76.43 0.0
03 02:35 Calm 9.66 Fog/Mist CLR 22 22 100% 76.43 0.0
03 02:15 Calm 14.48 Fair CLR 22 22 100% 76.43 0.0
03 01:55 Calm 14.48 Fair CLR 23 23 100% 76.45 0.0
03 01:35 Calm 16.09 Fair CLR 23 23 100% 76.45 0.0
03 01:15 N 7 16.09 Fair CLR 23 23 100% 76.45 0.0
03 00:55 N 9 14.48 Fair CLR 23 23 100% 76.45 0.0
03 00:35 N 9 16.09 Fair CLR 23 23 100% 76.45 0.0
03 00:15 N 6 14.48 Fair CLR 23 23 100% 76.45 0.0
02 23:55 N 6 14.48 Fair CLR 23 23 100% 76.45 0.0
02 23:35 Calm 16.09 Fair CLR 24 24 100% 23 76.45 0.0
02 23:15 Calm 14.48 Fair CLR 24 24 100% 23 76.48 0.0
02 22:55 Calm 12.87 Fair CLR 24 24 100% 23 76.48 0.0
02 22:35 Calm 16.09 Fair CLR 25 25 100% 25 76.48 0.0
02 22:15 NE 7 16.09 Fair CLR 25 25 100% 25 76.45 0.0
02 21:55 NE 6 16.09 Fair CLR 26 24 89% 28 76.45 0.0
02 21:35 NE 7 16.09 Fair CLR 26 24 89% 28 76.45 0.0
02 21:15 Calm 14.48 Fair CLR 26 24 89% 28 76.43 0.0
02 20:55 N 6 16.09 Fair CLR 25 24 94% 26 76.4 0.0
02 20:35 NE 7 16.09 Fair CLR 27 24 84% 30 76.4 0.0
02 20:15 Calm 16.09 Fair CLR 27 25 89% 31 76.4 0.0
02 19:55 Calm 16.09 Fair CLR 28 24 79% 32 76.4 0.0
02 19:35 Calm 16.09 Fair CLR 30 23 66% 34 76.38 0.0
02 19:15 Calm 16.09 Fair CLR 32 23 59% 37 76.4 0.0
02 18:55 Calm 16.09 Fair CLR 33 22 52% 37 76.4 0.0
02 18:35 SE 6 16.09 Fair CLR 34 20 44% 36 76.4 0.0
02 18:15 Vrbl 7 16.09 Fair CLR 34 20 44% 36 76.4 0.0
02 17:55 E 6 16.09 Fair CLR 34 19 41% 36 76.4 0.0
02 17:35 Calm 16.09 Fair CLR 35 19 39% 37 76.4 0.0
02 17:15 Calm 16.09 A Few Clouds FEW055 35 20 41% 38 76.4 0.0
02 16:55 NE 7 16.09 Mostly Cloudy BKN055 BKN090 35 20 41% 38 76.43 0.0
02 16:35 Vrbl 6 16.09 Fair CLR 35 20 41% 38 76.43 0.0
02 16:15 E 6 16.09 Fair CLR 35 18 36% 36 76.43 0.0
02 15:55 Vrbl 6 16.09 A Few Clouds FEW070 FEW085 35 21 44% 38 76.45 0.0
02 15:35 Vrbl 6 16.09 Mostly Cloudy FEW055 BKN070 BKN075 34 21 47% 37 76.48 0.0
02 15:15 Calm 16.09 Mostly Cloudy SCT060 BKN070 35 21 44% 38 76.48 0.0
02 14:55 Calm 16.09 Fair CLR 35 19 39% 37 76.5 0.0
02 14:35 Vrbl 6 16.09 A Few Clouds FEW050 35 21 44% 38 76.53 0.0
02 14:15 Calm 16.09 Partly Cloudy SCT050 35 20 41% 38 76.53 0.0
02 13:55 NW 6 16.09 Fair CLR 32 22 55% 36 76.53 0.0
02 13:35 Calm 16.09 Fair CLR 34 19 41% 36 76.56 0.0
02 13:15 N 9 16.09 Fair CLR 34 20 44% 36 76.58 0.0
02 12:55 Calm 16.09 Fair CLR 34 21 47% 37 76.61 0.0
02 12:35 Vrbl 7 16.09 Fair CLR 33 21 49% 36 76.61 0.0
02 12:15 Vrbl 6 16.09 Fair CLR 33 21 49% 36 76.63 0.0
02 11:55 Calm 16.09 Fair CLR 33 21 49% 36 76.63 0.0
02 11:35 Calm 16.09 Fair CLR 32 22 55% 36 76.66 0.0
02 11:15 Calm 16.09 Fair CLR 31 22 59% 35 76.66 0.0
02 10:55 Calm 12.87 Fair CLR 31 23 62% 35 76.66 0.0
02 10:35 N 7 16.09 Fair CLR 30 23 66% 34 76.63 0.0
02 10:15 Vrbl 7 16.09 Fair CLR 29 23 70% 33 76.66 0.0
02 09:55 N 7 16.09 Fair CLR 28 23 74% 31 76.66 0.0
02 09:35 N 7 16.09 Fair CLR 27 23 79% 30 76.66 0.0
02 09:15 N 9 16.09 Fair CLR 26 23 84% 28 76.66 0.0
02 08:55 NE 9 16.09 Fair CLR 25 23 89% 26 76.63 0.0
02 08:35 Calm 16.09 Fair CLR 24 23 94% 23 76.63 0.0
02 08:15 N 7 16.09 Fair CLR 23 23 100% 76.63 0.0
02 07:55 Calm 16.09 Fair CLR 22 22 100% 76.61 0.0
02 07:35 Vrbl 6 12.87 Fair CLR 21 21 100% 76.58 0.0
02 07:15 Calm 14.48 Fair CLR 21 21 100% 76.58 0.0
02 06:55 N 7 16.09 Fair CLR 21 21 100% 76.58 0.0
02 06:35 N 7 14.48 Fair CLR 21 21 100% 76.56 0.0
02 06:15 Vrbl 6 16.09 Fair CLR 21 21 100% 76.53 0.0
02 05:55 NE 11 16.09 Fair CLR 21 21 100% 76.53 0.0
02 05:35 Vrbl 6 14.48 Fair CLR 21 21 100% 76.53 0.0
02 05:15 N 9 12.87 Fair CLR 21 21 100% 76.5 0.0
02 04:55 Calm 11.27 Fair CLR 21 21 100% 76.5 0.0
02 04:35 Calm 14.48 Fair CLR 22 22 100% 76.5 0.0
02 04:15 Calm 16.09 Fair CLR 22 22 100% 76.5 0.0
02 03:55 Calm 12.87 Fair CLR 22 22 100% 76.48 0.0
02 03:35 N 6 14.48 Fair CLR 22 22 100% 76.48 0.0
02 03:15 N 7 16.09 Fair CLR 22 22 100% 76.48 0.0
02 02:55 N 6 14.48 Fair CLR 22 22 100% 76.48 0.0
02 02:35 N 7 16.09 Fair CLR 22 22 100% 76.48 0.0
02 02:15 N 6 12.87 Fair CLR 22 22 100% 76.5 0.0
02 01:55 N 7 14.48 Fair CLR 22 22 100% 76.5 0.0
02 01:35 N 7 11.27 Fair CLR 22 22 100% 76.5 0.0
02 01:15 N 6 11.27 Fair CLR 22 22 100% 76.5 0.0
02 00:55 N 6 12.87 Fair CLR 22 22 100% 76.5 0.0
02 00:35 NE 6 14.48 Fair CLR 22 22 100% 76.5 0.0
02 00:15 Calm 16.09 Fair CLR 23 23 100% 76.53 0.0
01 23:55 Calm 16.09 Fair CLR 23 23 100% 76.53 0.0
01 23:35 NE 7 16.09 Fair CLR 23 23 100% 76.53 0.0
01 23:15 Calm 16.09 Fair CLR 23 23 100% 76.53 0.0
01 22:55 N 6 16.09 Fair CLR 24 24 100% 23 76.56 0.0
01 22:35 N 6 16.09 Fair CLR 24 24 100% 23 76.53 0.0
01 22:15 Calm 16.09 Fair CLR 24 24 100% 23 76.5 0.0
01 21:55 Calm 16.09 A Few Clouds FEW080 25 24 94% 26 76.5 0.0
01 21:35 NE 6 16.09 A Few Clouds FEW080 24 24 100% 23 76.5 0.0
01 21:15 N 9 16.09 Fair CLR 24 24 100% 23 76.48 0.0
01 20:55 Calm 16.09 A Few Clouds FEW075 25 23 89% 26 76.48 0.0
01 20:35 NE 7 16.09 Fair CLR 26 24 89% 28 76.48 0.0
01 20:15 Calm 16.09 Fair CLR 27 22 74% 29 76.45 0.0
01 19:55 Calm 16.09 Fair CLR 28 23 74% 31 76.45 0.0
01 19:35 Vrbl 6 16.09 Fair CLR 29 22 66% 32 76.48 0.0
01 19:15 Calm 16.09 Fair CLR 31 23 62% 35 76.48 0.0
01 18:55 Calm 12.87 Fair CLR 32 22 55% 36 76.48 0.0
01 18:35 Vrbl 7 16.09 Fair CLR 32 21 52% 35 76.48 0.0
01 18:15 N 7 16.09 Fair CLR 33 19 44% 35 76.45 0.0
01 17:55 Vrbl 6 16.09 Fair CLR 33 19 44% 35 76.45 0.0
01 17:35 N 9 16.09 Fair CLR 34 19 41% 36 76.45 0.0
01 17:15 Vrbl 7 16.09 Fair CLR 34 19 41% 36 76.45 0.0
01 16:55 NE 11 16.09 A Few Clouds FEW050 34 20 44% 36 76.48 0.0
01 16:35 Calm 16.09 A Few Clouds FEW050 34 19 41% 36 76.48 0.0
01 16:15 Vrbl 9 16.09 Partly Cloudy SCT050 33 20 46% 35 76.5 0.0
01 15:55 Vrbl 7 16.09 Fair CLR 34 20 44% 36 76.5 0.0
01 15:35 N 7 16.09 A Few Clouds FEW048 FEW055 34 20 44% 36 76.53 0.0
01 15:15 N 7 16.09 Mostly Cloudy BKN048 33 21 49% 36 76.56 0.0
01 14:55 Vrbl 7 16.09 Partly Cloudy SCT048 SCT055 34 20 44% 36 76.56 0.0
01 14:35 Vrbl 11 16.09 Mostly Cloudy BKN046 BKN055 33 20 46% 35 76.56 0.0
01 14:15 Vrbl 7 16.09 Partly Cloudy SCT046 SCT060 34 21 47% 37 76.58 0.0
01 13:55 Vrbl 6 16.09 Fair CLR 34 20 44% 36 76.61 0.0
01 13:35 Vrbl 7 G 19 16.09 A Few Clouds FEW044 33 20 46% 35 76.61 0.0
01 13:15 Calm 16.09 A Few Clouds FEW041 33 20 46% 35 76.63 0.0
01 12:55 Calm 16.09 A Few Clouds FEW040 33 22 52% 37 76.66 0.0
01 12:35 Vrbl 7 16.09 A Few Clouds FEW039 31 21 55% 34 76.66 0.0
01 12:15 Calm 16.09 Fair CLR 32 21 52% 35 76.68 0.0
01 11:55 Calm 16.09 Fair CLR 31 21 55% 34 76.71 0.0
01 11:35 Calm 16.09 Fair CLR 31 21 55% 34 76.71 0.0
01 11:15 Calm 16.09 Fair CLR 30 21 59% 33 76.71 0.0
01 10:55 Calm 16.09 Fair CLR 29 21 62% 31 76.71 0.0
01 10:35 NE 6 16.09 Fair CLR 29 22 66% 32 76.71 0.0
01 10:15 NE 6 16.09 Fair CLR 27 22 74% 29 76.71 0.0
01 09:55 Calm 14.48 Fair CLR 26 22 79% 28 76.71 0.0
01 09:35 NE 7 16.09 Fair CLR 25 22 83% 26 76.71 0.0
01 09:15 Calm 16.09 Fair CLR 25 22 83% 26 76.71 0.0
01 08:55 Calm 16.09 Fair CLR 24 22 89% 24 76.68 0.0
01 08:35 Calm 16.09 Fair CLR 23 22 94% 76.68 0.0
01 08:15 N 6 16.09 Fair CLR 22 22 100% 76.66 0.0
01 07:55 Calm 16.09 Fair CLR 21 21 100% 76.66 0.0
01 07:35 N 7 14.48 Fair CLR 20 20 100% 76.63 0.0
01 07:15 N 7 14.48 Fair CLR 20 20 100% 76.61 0.0
01 06:55 N 6 16.09 Fair CLR 20 20 100% 76.61 0.0
01 06:35 Vrbl 6 16.09 Fair CLR 21 21 100% 76.61 0.0
01 06:15 NE 7 16.09 Fair CLR 21 21 100% 76.58 0.0
01 05:55 NE 7 14.48 Fair CLR 21 21 100% 76.58 0.0
01 05:35 N 7 14.48 Fair CLR 21 21 100% 76.58 0.0
01 05:15 N 7 16.09 Fair CLR 21 21 100% 76.56 0.0
01 04:55 N 7 16.09 Fair CLR 21 21 100% 76.56 0.0
01 04:35 Calm 16.09 Fair CLR 21 21 100% 76.56 0.0
01 04:15 NE 7 16.09 Fair CLR 21 21 100% 76.56 0.0
01 03:55 NE 9 16.09 Fair CLR 21 21 100% 76.56 0.0
01 03:35 N 7 16.09 Fair CLR 21 21 100% 76.56 0.0
01 03:15 N 9 16.09 Fair CLR 21 21 100% 76.56 0.0
01 02:55 N 7 16.09 Fair CLR 21 21 100% 76.58 0.0
01 02:35 N 9 16.09 Fair CLR 21 21 100% 76.58 0.0
01 02:15 Vrbl 6 16.09 Fair CLR 21 21 100% 76.58 0.0
01 01:55 Calm 16.09 Fair CLR 21 21 100% 76.61 0.0
01 01:35 NE 11 16.09 Fair CLR 22 22 100% 76.58 0.0
01 01:15 NE 9 16.09 Fair CLR 22 22 100% 76.58 0.0
01 00:55 NE 9 14.48 Fair CLR 22 22 100% 76.58 0.0
01 00:35 N 6 11.27 Fair CLR 22 22 100% 76.61 0.0
01 00:15 Calm 16.09 Fair CLR 22 22 100% 76.61 0.0
31 23:55 Calm 14.48 Fair CLR 23 23 100% 76.58 0.0
31 23:35 NE 7 16.09 Fair CLR 23 23 100% 76.58 0.0
31 23:15 NE 9 16.09 Fair CLR 23 23 100% 76.58 0.0
31 22:55 Calm 14.48 Fair CLR 22 22 100% 76.61 0.0
31 22:35 Calm 16.09 Fair CLR 23 23 100% 76.58 0.0
31 22:15 Calm 16.09 Fair CLR 23 23 100% 76.58 0.0
Date Time (edt) Wind (kph) Vis. (km) Weather Sky Cond. Air Dwpt Max. Min. Relative Humidity Wind Chill (°C) Heat Index (°C) altimeter (cm) sea level (mb) 1 hr 3 hr 6 hr
6 hour
Temperature (ºC) Pressure Precipitation (cm)